Time;durP1;ratioP1;P1;durP2;ratioP2;P2;SDS_P1;SDS_P2;PMS_P1;PMS_P2;Temp;Humidity;BMP_temperature;BMP_pressure;BME280_temperature;BME280_humidity;BME280_pressure;Samples;Min_cycle;Max_cycle;Signal;HPM_P1;HPM_P2
2021/06/19 00:00:35;;;;;;;4.97;3.87;;;;;;;;;;4950940;28;20438;-73
2021/06/19 00:03:04;;;;;;;5.63;3.10;;;;;;;;;;4967092;28;20533;-73
2021/06/19 00:05:30;;;;;;;3.87;3.47;;;;;;;;;;4947124;28;21507;-74
2021/06/19 00:07:56;;;;;;;3.70;3.13;;;;;;;;;;4946481;28;20446;-74
2021/06/19 00:10:23;;;;;;;4.30;3.47;;;;;;;;;;4949109;28;20485;-73
2021/06/19 00:12:50;;;;;;;4.60;3.90;;;;;;;;;;4950380;28;20455;-74
2021/06/19 00:15:17;;;;;;;4.03;2.90;;;;;;;;;;4968459;28;20464;-74
2021/06/19 00:17:43;;;;;;;4.53;3.37;;;;;;;;;;4946713;28;20484;-73
2021/06/19 00:20:11;;;;;;;6.83;3.77;;;;;;;;;;4961487;28;20473;-74
2021/06/19 00:22:37;;;;;;;3.40;3.10;;;;;;;;;;4946708;28;21461;-74
2021/06/19 00:25:04;;;;;;;3.63;3.13;;;;;;;;;;4949202;28;20466;-74
2021/06/19 00:27:30;;;;;;;3.70;3.30;;;;;;;;;;4947498;28;20438;-74
2021/06/19 00:29:56;;;;;;;6.10;4.03;;;;;;;;;;4950812;28;20971;-73
2021/06/19 00:32:22;;;;;;;9.00;3.87;;;;;;;;;;4964192;28;20534;-73
2021/06/19 00:34:48;;;;;;;11.83;3.80;;;;;;;;;;4964014;28;20971;-74
2021/06/19 00:37:14;;;;;;;5.40;3.20;;;;;;;;;;4953360;28;23969;-75
2021/06/19 00:39:40;;;;;;;3.97;3.57;;;;;;;;;;4949846;28;20437;-73
2021/06/19 00:42:06;;;;;;;4.20;3.30;;;;;;;;;;4963029;28;20441;-75
2021/06/19 00:44:32;;;;;;;6.23;4.13;;;;;;;;;;4950000;28;21106;-74
2021/06/19 00:46:58;;;;;;;5.70;4.23;;;;;;;;;;4963912;28;20446;-73
2021/06/19 00:49:25;;;;;;;6.13;3.80;;;;;;;;;;4948956;28;20450;-74
2021/06/19 00:51:51;;;;;;;5.53;3.90;;;;;;;;;;4950365;28;20569;-74
2021/06/19 00:54:17;;;;;;;5.63;3.93;;;;;;;;;;4949067;28;20469;-74
2021/06/19 00:56:44;;;;;;;6.00;4.10;;;;;;;;;;4948823;28;20438;-75
2021/06/19 00:59:10;;;;;;;9.20;5.53;;;;;;;;;;4950457;28;20438;-74
2021/06/19 01:01:37;;;;;;;3.70;3.30;;;;;;;;;;4948371;28;20453;-73
2021/06/19 01:04:04;;;;;;;8.20;4.20;;;;;;;;;;4947862;28;20442;-74
2021/06/19 01:06:31;;;;;;;9.63;3.93;;;;;;;;;;4951798;28;20532;-74
2021/06/19 01:08:57;;;;;;;3.90;3.50;;;;;;;;;;4949246;28;20450;-74
2021/06/19 01:11:24;;;;;;;8.00;3.70;;;;;;;;;;4952151;28;20477;-74
2021/06/19 01:13:51;;;;;;;8.33;4.67;;;;;;;;;;4969740;28;20466;-74
2021/06/19 01:16:18;;;;;;;6.50;4.07;;;;;;;;;;4968710;28;20454;-73
2021/06/19 01:18:44;;;;;;;4.17;3.20;;;;;;;;;;4957519;28;20438;-74
2021/06/19 01:21:17;;;;;;;7.13;4.63;;;;;;;;;;4950983;28;20452;-74
2021/06/19 01:23:44;;;;;;;13.77;5.33;;;;;;;;;;4963904;28;20528;-74
2021/06/19 01:26:17;;;;;;;8.70;4.37;;;;;;;;;;4953486;28;20462;-74
2021/06/19 01:28:46;;;;;;;7.27;4.47;;;;;;;;;;4954572;28;20447;-75
2021/06/19 01:31:12;;;;;;;5.73;4.90;;;;;;;;;;4952994;28;20477;-74
2021/06/19 01:33:39;;;;;;;8.23;4.53;;;;;;;;;;4951889;28;20442;-73
2021/06/19 01:36:06;;;;;;;5.83;4.40;;;;;;;;;;4954980;28;20460;-74
2021/06/19 01:38:32;;;;;;;4.70;3.60;;;;;;;;;;4967368;28;20442;-74
2021/06/19 01:40:59;;;;;;;7.33;3.83;;;;;;;;;;4969075;28;20811;-74
2021/06/19 01:43:25;;;;;;;9.03;4.23;;;;;;;;;;4950284;28;20482;-75
2021/06/19 01:45:51;;;;;;;6.13;3.80;;;;;;;;;;4966794;28;20525;-73
2021/06/19 01:48:17;;;;;;;7.47;4.20;;;;;;;;;;4951622;28;21215;-75
2021/06/19 01:50:43;;;;;;;4.13;3.50;;;;;;;;;;4951379;28;20867;-73
2021/06/19 01:53:09;;;;;;;19.70;4.77;;;;;;;;;;4952907;28;20463;-74
2021/06/19 01:55:35;;;;;;;7.50;5.37;;;;;;;;;;4952163;28;20485;-73
2021/06/19 01:58:01;;;;;;;7.90;4.97;;;;;;;;;;4958335;28;20462;-74
2021/06/19 02:00:28;;;;;;;8.17;4.63;;;;;;;;;;4950882;28;20530;-74
2021/06/19 02:02:55;;;;;;;5.73;4.43;;;;;;;;;;4967480;28;20454;-74
2021/06/19 02:05:22;;;;;;;5.80;5.20;;;;;;;;;;4965883;28;20457;-73
2021/06/19 02:07:50;;;;;;;7.87;4.53;;;;;;;;;;4952560;28;20438;-74
2021/06/19 02:10:18;;;;;;;6.50;5.40;;;;;;;;;;4950483;28;20586;-74
2021/06/19 02:12:45;;;;;;;9.80;5.50;;;;;;;;;;4952074;28;20461;-74
2021/06/19 02:15:11;;;;;;;13.53;5.87;;;;;;;;;;4966898;28;20454;-74
2021/06/19 02:17:38;;;;;;;7.57;6.20;;;;;;;;;;4957728;28;20545;-74
2021/06/19 02:20:07;;;;;;;7.57;4.93;;;;;;;;;;4952377;28;20453;-75
2021/06/19 02:22:37;;;;;;;10.33;6.90;;;;;;;;;;4966315;28;20438;-74
2021/06/19 02:25:05;;;;;;;8.93;7.43;;;;;;;;;;4954190;28;20462;-74
2021/06/19 02:27:31;;;;;;;8.17;5.57;;;;;;;;;;4951899;28;20453;-74
2021/06/19 02:29:57;;;;;;;9.30;6.00;;;;;;;;;;4966425;28;20443;-75
2021/06/19 02:32:23;;;;;;;8.47;6.30;;;;;;;;;;4951349;28;20501;-75
2021/06/19 02:34:49;;;;;;;7.57;5.93;;;;;;;;;;4949588;28;20981;-74
2021/06/19 02:37:15;;;;;;;11.17;6.70;;;;;;;;;;4961649;28;21016;-74
2021/06/19 02:39:41;;;;;;;9.23;6.20;;;;;;;;;;4954315;28;20479;-74
2021/06/19 02:42:07;;;;;;;8.63;6.40;;;;;;;;;;4963698;28;20995;-75
2021/06/19 02:44:33;;;;;;;9.60;6.80;;;;;;;;;;4951996;28;20466;-74
2021/06/19 02:46:59;;;;;;;9.57;6.60;;;;;;;;;;4968249;28;20979;-74
2021/06/19 02:49:25;;;;;;;10.43;6.37;;;;;;;;;;4969066;28;20529;-73
2021/06/19 02:51:51;;;;;;;10.27;6.17;;;;;;;;;;4950532;28;20477;-74
2021/06/19 02:54:17;;;;;;;8.27;6.73;;;;;;;;;;4952113;28;20508;-74
2021/06/19 02:56:43;;;;;;;10.07;6.80;;;;;;;;;;4958761;28;20442;-74
2021/06/19 02:59:09;;;;;;;9.53;7.00;;;;;;;;;;4952344;28;20956;-74
2021/06/19 03:01:35;;;;;;;18.00;7.30;;;;;;;;;;4953103;28;20466;-74
2021/06/19 03:04:01;;;;;;;12.73;8.07;;;;;;;;;;4953680;28;20810;-74
2021/06/19 03:06:27;;;;;;;12.70;7.67;;;;;;;;;;4953249;28;21006;-74
2021/06/19 03:08:53;;;;;;;9.83;7.27;;;;;;;;;;4952426;28;20897;-74
2021/06/19 03:11:19;;;;;;;10.50;7.20;;;;;;;;;;4967983;28;20573;-74
2021/06/19 03:13:45;;;;;;;11.47;7.00;;;;;;;;;;4949895;28;20521;-74
2021/06/19 03:16:11;;;;;;;9.40;7.47;;;;;;;;;;4948951;28;20457;-75
2021/06/19 03:18:37;;;;;;;10.10;8.37;;;;;;;;;;4966801;28;20430;-75
2021/06/19 03:21:03;;;;;;;10.83;6.43;;;;;;;;;;4966487;28;21870;-74
2021/06/19 03:23:29;;;;;;;9.03;6.90;;;;;;;;;;4949266;28;20952;-74
2021/06/19 03:25:55;;;;;;;10.20;7.23;;;;;;;;;;4950309;28;20458;-74
2021/06/19 03:28:21;;;;;;;8.80;6.73;;;;;;;;;;4954518;28;22015;-74
2021/06/19 03:30:47;;;;;;;12.90;7.17;;;;;;;;;;4966026;28;20872;-75
2021/06/19 03:33:15;;;;;;;12.67;7.30;;;;;;;;;;4947174;28;20435;-74
2021/06/19 03:35:41;;;;;;;7.87;6.20;;;;;;;;;;4965064;28;20839;-74
2021/06/19 03:38:07;;;;;;;11.30;7.40;;;;;;;;;;4948919;28;20446;-74
2021/06/19 03:40:34;;;;;;;11.37;7.53;;;;;;;;;;4949356;28;20454;-75
2021/06/19 03:43:00;;;;;;;10.17;6.63;;;;;;;;;;4949975;28;20579;-74
2021/06/19 03:45:28;;;;;;;14.67;6.77;;;;;;;;;;4948808;28;20995;-75
2021/06/19 03:47:54;;;;;;;8.97;6.70;;;;;;;;;;4963526;28;20473;-75
2021/06/19 03:50:21;;;;;;;9.87;6.80;;;;;;;;;;4949567;28;20964;-74
2021/06/19 03:52:47;;;;;;;9.77;6.23;;;;;;;;;;4951594;28;20791;-74
2021/06/19 03:55:14;;;;;;;11.27;7.50;;;;;;;;;;4949760;28;20457;-74
2021/06/19 03:57:40;;;;;;;10.80;6.60;;;;;;;;;;4949232;28;20439;-74
2021/06/19 04:00:10;;;;;;;11.63;6.60;;;;;;;;;;4950872;28;20468;-72
2021/06/19 04:02:36;;;;;;;11.07;6.43;;;;;;;;;;4950972;28;20465;-73
2021/06/19 04:05:03;;;;;;;10.53;6.40;;;;;;;;;;4950485;28;21426;-74
2021/06/19 04:07:29;;;;;;;13.13;7.17;;;;;;;;;;4963398;28;20521;-74
2021/06/19 04:09:55;;;;;;;8.43;6.13;;;;;;;;;;4950582;28;20445;-74
2021/06/19 04:12:21;;;;;;;9.43;7.00;;;;;;;;;;4949085;28;20525;-73
2021/06/19 04:14:48;;;;;;;10.97;7.27;;;;;;;;;;4962712;28;20996;-72
2021/06/19 04:17:14;;;;;;;11.37;6.90;;;;;;;;;;4950093;28;20442;-73
2021/06/19 04:19:40;;;;;;;10.50;7.77;;;;;;;;;;4966853;28;20493;-74
2021/06/19 04:22:07;;;;;;;12.63;8.27;;;;;;;;;;4963181;28;20577;-74
2021/06/19 04:24:33;;;;;;;13.90;7.30;;;;;;;;;;4948567;28;20477;-73
2021/06/19 04:26:59;;;;;;;9.30;6.80;;;;;;;;;;4949612;28;20447;-74
2021/06/19 04:29:27;;;;;;;8.33;6.20;;;;;;;;;;4950475;28;20521;-75
2021/06/19 04:31:54;;;;;;;10.13;6.20;;;;;;;;;;4950555;28;20470;-74
2021/06/19 04:34:20;;;;;;;9.53;7.23;;;;;;;;;;4963564;28;20583;-74
2021/06/19 04:36:46;;;;;;;12.27;7.13;;;;;;;;;;4964408;28;20566;-74
2021/06/19 04:39:12;;;;;;;8.47;6.33;;;;;;;;;;4951911;28;20525;-74
2021/06/19 04:41:57;;;;;;;10.63;6.23;;;;;;;;;;4952174;28;20587;-74
2021/06/19 04:44:43;;;;;;;11.37;7.27;;;;;;;;;;4951221;28;20504;-74
2021/06/19 04:47:09;;;;;;;9.37;6.23;;;;;;;;;;4954692;28;20453;-74
2021/06/19 04:49:35;;;;;;;9.93;6.60;;;;;;;;;;4952370;28;20461;-74
2021/06/19 04:52:01;;;;;;;9.63;6.57;;;;;;;;;;4952110;28;20485;-75
2021/06/19 04:54:27;;;;;;;10.43;6.87;;;;;;;;;;4972110;28;20462;-73
2021/06/19 04:56:53;;;;;;;8.17;6.40;;;;;;;;;;4953329;28;20537;-73
2021/06/19 04:59:19;;;;;;;11.10;6.70;;;;;;;;;;4971313;28;20529;-75
2021/06/19 05:01:45;;;;;;;10.30;5.83;;;;;;;;;;4955343;28;25872;-74
2021/06/19 05:04:11;;;;;;;10.37;6.50;;;;;;;;;;4967675;28;20439;-74
2021/06/19 05:06:37;;;;;;;8.93;6.90;;;;;;;;;;4953415;28;20862;-75
2021/06/19 05:09:05;;;;;;;10.03;7.17;;;;;;;;;;4954383;28;20450;-75
2021/06/19 05:11:33;;;;;;;9.40;6.10;;;;;;;;;;4956204;28;21023;-74
2021/06/19 05:13:59;;;;;;;10.67;7.80;;;;;;;;;;4954824;28;20524;-73
2021/06/19 05:16:26;;;;;;;7.97;6.03;;;;;;;;;;4959456;28;22408;-73
2021/06/19 05:18:52;;;;;;;14.10;6.60;;;;;;;;;;4971417;28;20941;-75
2021/06/19 05:21:17;;;;;;;8.00;6.20;;;;;;;;;;4954168;28;20928;-75
2021/06/19 05:23:43;;;;;;;9.57;6.60;;;;;;;;;;4948209;28;20460;-75
2021/06/19 05:26:09;;;;;;;8.07;6.17;;;;;;;;;;4966865;28;20867;-74
2021/06/19 05:28:35;;;;;;;6.97;5.23;;;;;;;;;;4968392;28;20453;-75
2021/06/19 05:31:03;;;;;;;7.83;6.67;;;;;;;;;;4967910;28;20462;-74
2021/06/19 05:33:29;;;;;;;10.80;6.80;;;;;;;;;;4970450;28;20434;-75
2021/06/19 05:35:55;;;;;;;12.33;6.87;;;;;;;;;;4954516;28;20493;-75
2021/06/19 05:38:21;;;;;;;9.70;5.77;;;;;;;;;;4957460;28;20510;-74
2021/06/19 05:40:47;;;;;;;9.70;6.60;;;;;;;;;;4955185;28;20470;-74
2021/06/19 05:43:13;;;;;;;11.53;6.50;;;;;;;;;;4955404;28;20415;-74
2021/06/19 05:45:39;;;;;;;12.97;6.93;;;;;;;;;;4954843;28;20952;-74
2021/06/19 05:48:05;;;;;;;10.50;7.80;;;;;;;;;;4955582;28;20906;-74
2021/06/19 05:50:32;;;;;;;8.83;7.07;;;;;;;;;;4970453;28;20999;-74
2021/06/19 05:52:58;;;;;;;10.10;7.10;;;;;;;;;;4953371;28;20431;-75
2021/06/19 05:55:24;;;;;;;10.07;7.20;;;;;;;;;;4950574;28;20874;-75
2021/06/19 05:57:50;;;;;;;8.17;6.30;;;;;;;;;;4968993;28;20442;-75
2021/06/19 06:00:16;;;;;;;10.40;7.03;;;;;;;;;;4969453;28;20439;-75
2021/06/19 06:02:43;;;;;;;10.77;6.50;;;;;;;;;;4974058;28;20435;-75
2021/06/19 06:05:10;;;;;;;9.70;7.50;;;;;;;;;;4952302;28;20434;-76
2021/06/19 06:07:36;;;;;;;12.20;6.90;;;;;;;;;;4955328;28;20786;-75
2021/06/19 06:10:02;;;;;;;16.40;8.23;;;;;;;;;;4955503;28;20439;-75
2021/06/19 06:12:28;;;;;;;11.30;7.37;;;;;;;;;;4957271;28;20414;-76
2021/06/19 06:14:54;;;;;;;11.50;8.03;;;;;;;;;;4968778;28;20815;-77
2021/06/19 06:17:20;;;;;;;9.60;7.27;;;;;;;;;;4968920;28;20430;-76
2021/06/19 06:19:46;;;;;;;11.60;9.03;;;;;;;;;;4971038;28;20451;-75
2021/06/19 06:22:12;;;;;;;11.80;7.17;;;;;;;;;;4956155;28;20968;-75
2021/06/19 06:24:38;;;;;;;8.17;6.43;;;;;;;;;;4973492;28;20465;-75
2021/06/19 06:27:04;;;;;;;11.77;8.57;;;;;;;;;;4969012;28;20427;-75
2021/06/19 06:29:31;;;;;;;11.00;7.47;;;;;;;;;;4955657;28;20431;-76
2021/06/19 06:31:57;;;;;;;10.33;7.50;;;;;;;;;;4953173;28;20470;-76
2021/06/19 06:34:24;;;;;;;9.30;6.73;;;;;;;;;;4953394;28;20422;-76
2021/06/19 06:36:50;;;;;;;11.33;7.73;;;;;;;;;;4955775;28;20431;-75
2021/06/19 06:39:16;;;;;;;10.30;7.43;;;;;;;;;;4970797;28;20423;-75
2021/06/19 06:41:43;;;;;;;8.43;7.00;;;;;;;;;;4969393;28;20426;-75
2021/06/19 06:44:08;;;;;;;9.93;6.50;;;;;;;;;;4968678;28;20426;-76
2021/06/19 06:46:35;;;;;;;10.87;7.20;;;;;;;;;;4953613;28;20509;-74
2021/06/19 06:49:00;;;;;;;9.57;6.33;;;;;;;;;;4955842;28;20414;-75
2021/06/19 06:51:26;;;;;;;9.50;6.27;;;;;;;;;;4951311;28;20470;-76
2021/06/19 06:53:52;;;;;;;8.80;6.20;;;;;;;;;;4953713;28;20453;-73
2021/06/19 06:56:19;;;;;;;8.30;6.13;;;;;;;;;;4967670;28;20877;-73
2021/06/19 06:58:45;;;;;;;8.47;5.67;;;;;;;;;;4967130;28;20445;-74
2021/06/19 07:01:11;;;;;;;9.43;6.60;;;;;;;;;;4958377;28;20434;-74
2021/06/19 07:03:37;;;;;;;9.60;6.40;;;;;;;;;;4956662;28;20780;-75
2021/06/19 07:06:03;;;;;;;9.20;6.90;;;;;;;;;;4955949;28;20956;-74
2021/06/19 07:08:29;;;;;;;8.97;6.33;;;;;;;;;;4961033;28;20524;-74
2021/06/19 07:10:55;;;;;;;10.13;6.60;;;;;;;;;;4954331;28;20886;-75
2021/06/19 07:13:21;;;;;;;8.60;6.37;;;;;;;;;;4969879;28;20455;-73
2021/06/19 07:15:47;;;;;;;9.30;5.97;;;;;;;;;;4952872;28;20979;-73
2021/06/19 07:18:13;;;;;;;8.97;6.70;;;;;;;;;;4959561;28;20452;-76
2021/06/19 07:20:39;;;;;;;7.70;5.90;;;;;;;;;;4955907;28;20419;-74
2021/06/19 07:23:05;;;;;;;9.43;6.30;;;;;;;;;;4953227;28;20430;-75
2021/06/19 07:25:31;;;;;;;6.60;5.13;;;;;;;;;;4953121;28;20521;-75
2021/06/19 07:27:59;;;;;;;9.57;5.97;;;;;;;;;;4954442;28;20450;-75
2021/06/19 07:30:26;;;;;;;6.77;5.23;;;;;;;;;;4969628;28;20465;-74
2021/06/19 07:32:53;;;;;;;10.23;6.23;;;;;;;;;;4967954;28;20978;-74
2021/06/19 07:35:19;;;;;;;7.43;5.17;;;;;;;;;;4954305;28;20533;-75
2021/06/19 07:37:45;;;;;;;8.40;4.77;;;;;;;;;;4956715;28;20411;-74
2021/06/19 07:40:12;;;;;;;8.80;5.30;;;;;;;;;;4971093;28;20521;-76
2021/06/19 07:42:38;;;;;;;6.77;4.93;;;;;;;;;;4953477;28;20964;-76
2021/06/19 07:45:04;;;;;;;6.80;4.73;;;;;;;;;;4966468;28;20490;-75
2021/06/19 07:47:31;;;;;;;8.13;5.03;;;;;;;;;;4953937;28;20426;-75
2021/06/19 07:49:57;;;;;;;5.63;4.40;;;;;;;;;;4955808;28;20932;-75
2021/06/19 07:52:23;;;;;;;7.50;4.97;;;;;;;;;;4965092;28;20561;-76
2021/06/19 07:54:49;;;;;;;6.27;4.23;;;;;;;;;;4968604;28;20961;-75
2021/06/19 07:57:15;;;;;;;10.90;6.30;;;;;;;;;;4958136;28;20414;-75
2021/06/19 07:59:41;;;;;;;6.73;4.10;;;;;;;;;;4967943;28;20430;-74
2021/06/19 08:02:07;;;;;;;5.70;3.57;;;;;;;;;;4955560;28;20417;-76
2021/06/19 08:04:34;;;;;;;9.00;4.77;;;;;;;;;;4954212;28;20443;-76
2021/06/19 08:07:00;;;;;;;8.07;5.27;;;;;;;;;;4968733;28;20429;-74
2021/06/19 08:09:26;;;;;;;5.80;4.20;;;;;;;;;;4957904;28;20425;-73
2021/06/19 08:11:52;;;;;;;7.77;4.20;;;;;;;;;;4954281;28;20553;-75
2021/06/19 08:14:19;;;;;;;7.63;4.80;;;;;;;;;;4953074;28;20914;-74
2021/06/19 08:16:47;;;;;;;7.43;4.73;;;;;;;;;;4955820;28;20789;-75
2021/06/19 08:19:14;;;;;;;5.80;3.90;;;;;;;;;;4954598;28;20469;-74
2021/06/19 08:21:40;;;;;;;5.60;3.83;;;;;;;;;;4952913;28;20422;-74
2021/06/19 08:24:06;;;;;;;6.50;4.17;;;;;;;;;;4954201;28;20444;-73
2021/06/19 08:26:36;;;;;;;4.17;3.40;;;;;;;;;;4956471;28;21295;-74
2021/06/19 08:29:02;;;;;;;5.63;4.40;;;;;;;;;;4956760;28;21360;-74
2021/06/19 08:31:28;;;;;;;5.73;3.30;;;;;;;;;;4969161;28;20469;-74
2021/06/19 08:33:54;;;;;;;5.10;3.13;;;;;;;;;;4971357;28;20422;-75
2021/06/19 08:36:20;;;;;;;4.70;3.50;;;;;;;;;;4953117;28;20501;-75
2021/06/19 08:38:46;;;;;;;5.40;3.70;;;;;;;;;;4971083;28;20426;-75
2021/06/19 08:41:12;;;;;;;4.80;2.93;;;;;;;;;;4955559;28;20518;-74
2021/06/19 08:43:40;;;;;;;8.23;2.90;;;;;;;;;;4953854;28;20474;-74
2021/06/19 08:46:07;;;;;;;6.67;4.03;;;;;;;;;;4952405;28;20465;-75
2021/06/19 08:48:34;;;;;;;5.87;3.57;;;;;;;;;;4952191;28;20475;-74
2021/06/19 08:51:01;;;;;;;8.50;5.13;;;;;;;;;;4951070;28;20462;-76
2021/06/19 08:53:28;;;;;;;7.50;4.20;;;;;;;;;;4951611;28;20421;-74
2021/06/19 08:55:53;;;;;;;5.27;3.50;;;;;;;;;;4965836;28;20446;-75
2021/06/19 08:58:19;;;;;;;6.00;4.13;;;;;;;;;;4952627;28;20505;-73
2021/06/19 09:00:46;;;;;;;7.07;4.47;;;;;;;;;;4950836;28;20442;-76
2021/06/19 09:03:22;;;;;;;7.30;4.87;;;;;;;;;;4948761;28;20437;-76
2021/06/19 09:05:49;;;;;;;8.03;5.20;;;;;;;;;;4968183;28;20450;-74
2021/06/19 09:08:15;;;;;;;7.60;5.50;;;;;;;;;;4951868;28;20418;-76
2021/06/19 09:10:41;;;;;;;13.97;5.23;;;;;;;;;;4952096;28;20897;-74
2021/06/19 09:13:18;;;;;;;8.37;5.33;;;;;;;;;;4950742;28;20453;-76
2021/06/19 09:15:55;;;;;;;7.03;4.67;;;;;;;;;;4967972;28;20454;-72
2021/06/19 09:18:30;;;;;;;6.10;4.60;;;;;;;;;;4957411;28;20417;-75
2021/06/19 09:20:59;;;;;;;10.60;5.40;;;;;;;;;;4951695;28;20422;-76
2021/06/19 09:23:30;;;;;;;6.87;4.17;;;;;;;;;;4970478;28;20430;-76
2021/06/19 09:26:10;;;;;;;10.10;5.77;;;;;;;;;;4968160;28;20445;-74
2021/06/19 09:28:56;;;;;;;12.10;5.20;;;;;;;;;;4951554;28;20928;-75
2021/06/19 09:31:37;;;;;;;11.93;6.73;;;;;;;;;;4951317;28;20548;-75
2021/06/19 09:34:07;;;;;;;8.80;4.87;;;;;;;;;;4975771;28;20437;-74
2021/06/19 09:36:37;;;;;;;8.83;5.40;;;;;;;;;;4958530;28;20438;-76
2021/06/19 09:39:05;;;;;;;11.13;5.90;;;;;;;;;;4966859;28;20417;-75
2021/06/19 09:41:34;;;;;;;7.90;5.97;;;;;;;;;;4960029;28;20948;-74
2021/06/19 09:44:00;;;;;;;12.13;6.13;;;;;;;;;;4968987;28;20528;-74
2021/06/19 09:46:26;;;;;;;11.23;6.13;;;;;;;;;;4952194;28;20549;-75
2021/06/19 09:48:52;;;;;;;11.40;6.63;;;;;;;;;;4954331;28;20431;-75
2021/06/19 09:51:24;;;;;;;10.20;6.70;;;;;;;;;;4967625;28;20525;-76
2021/06/19 09:53:51;;;;;;;15.03;6.27;;;;;;;;;;4971715;28;20528;-75
2021/06/19 09:56:20;;;;;;;10.40;5.60;;;;;;;;;;4954019;28;20451;-73
2021/06/19 09:58:48;;;;;;;8.63;5.93;;;;;;;;;;4958197;28;20426;-76
2021/06/19 10:01:21;;;;;;;8.30;5.70;;;;;;;;;;4967910;28;20514;-74
2021/06/19 10:03:50;;;;;;;7.50;4.90;;;;;;;;;;4953551;28;20529;-75
2021/06/19 10:06:16;;;;;;;9.73;6.00;;;;;;;;;;4969538;28;20501;-75
2021/06/19 10:08:46;;;;;;;10.17;6.60;;;;;;;;;;4968889;28;20430;-75
2021/06/19 10:11:13;;;;;;;6.93;4.70;;;;;;;;;;4956369;28;20467;-75
2021/06/19 10:13:40;;;;;;;7.60;4.30;;;;;;;;;;4952711;28;20438;-75
2021/06/19 10:16:07;;;;;;;10.43;5.77;;;;;;;;;;4971128;28;20490;-74
2021/06/19 10:18:33;;;;;;;8.17;5.43;;;;;;;;;;4952914;28;20458;-75
2021/06/19 10:20:59;;;;;;;8.70;5.40;;;;;;;;;;4956141;28;20427;-75
2021/06/19 10:23:25;;;;;;;10.37;5.33;;;;;;;;;;4968393;28;20806;-75
2021/06/19 10:25:52;;;;;;;5.23;4.00;;;;;;;;;;4967138;28;20454;-75
2021/06/19 10:28:19;;;;;;;6.50;4.37;;;;;;;;;;4953683;28;20423;-75
2021/06/19 10:30:45;;;;;;;7.17;5.27;;;;;;;;;;4967518;28;20470;-78
2021/06/19 10:33:28;;;;;;;9.27;5.77;;;;;;;;;;4952014;28;20489;-74
2021/06/19 10:35:54;;;;;;;10.90;5.10;;;;;;;;;;4972366;28;20476;-76
2021/06/19 10:38:21;;;;;;;7.93;5.23;;;;;;;;;;4960597;28;20419;-75
2021/06/19 10:40:53;;;;;;;10.93;6.43;;;;;;;;;;4955497;28;20476;-75
2021/06/19 10:43:23;;;;;;;7.40;5.20;;;;;;;;;;4953321;28;20474;-75
2021/06/19 10:45:50;;;;;;;7.70;4.80;;;;;;;;;;4952185;28;20489;-76
2021/06/19 10:48:19;;;;;;;5.03;4.07;;;;;;;;;;4953667;28;20415;-78
2021/06/19 10:50:47;;;;;;;6.70;4.60;;;;;;;;;;4967350;28;20470;-74
2021/06/19 10:53:14;;;;;;;7.40;4.30;;;;;;;;;;4968005;28;20804;-75
2021/06/19 10:55:43;;;;;;;8.17;5.47;;;;;;;;;;4956429;28;20442;-75
2021/06/19 10:58:28;;;;;;;7.10;5.27;;;;;;;;;;4967748;28;20498;-76
2021/06/19 11:00:57;;;;;;;8.10;4.90;;;;;;;;;;4965387;28;20438;-75
2021/06/19 11:03:39;;;;;;;6.90;4.10;;;;;;;;;;4966328;28;21033;-75
2021/06/19 11:06:24;;;;;;;6.87;4.60;;;;;;;;;;4964647;28;20461;-75
2021/06/19 11:09:05;;;;;;;4.63;3.93;;;;;;;;;;4948470;28;20453;-74
2021/06/19 11:12:05;;;;;;;5.03;3.53;;;;;;;;;;4948589;28;20623;-75
2021/06/19 11:14:41;;;;;;;8.83;3.63;;;;;;;;;;4955926;28;20473;-75
2021/06/19 11:17:07;;;;;;;5.13;3.10;;;;;;;;;;4966374;28;20580;-73
2021/06/19 11:19:35;;;;;;;7.23;4.63;;;;;;;;;;4963331;28;20839;-78
2021/06/19 11:22:19;;;;;;;6.83;4.20;;;;;;;;;;4951512;28;20839;-76
2021/06/19 11:25:04;;;;;;;4.83;3.27;;;;;;;;;;4951405;28;20524;-76
2021/06/19 11:27:48;;;;;;;6.77;4.43;;;;;;;;;;4949293;28;20525;-75
2021/06/19 11:30:32;;;;;;;8.47;4.70;;;;;;;;;;4970652;28;20901;-72
2021/06/19 11:33:24;;;;;;;7.53;4.00;;;;;;;;;;4968588;28;20509;-72
2021/06/19 11:35:50;;;;;;;7.43;4.83;;;;;;;;;;4954285;28;21525;-73
2021/06/19 11:38:17;;;;;;;8.70;5.60;;;;;;;;;;4950397;28;20464;-80
2021/06/19 11:40:44;;;;;;;10.67;6.33;;;;;;;;;;4967661;28;20455;-72
2021/06/19 11:43:10;;;;;;;7.20;4.30;;;;;;;;;;4951264;28;20844;-70
2021/06/19 11:45:38;;;;;;;6.70;5.00;;;;;;;;;;4955670;28;20474;-75
2021/06/19 11:48:05;;;;;;;7.03;4.70;;;;;;;;;;4952835;28;21051;-73
2021/06/19 11:50:31;;;;;;;5.30;4.17;;;;;;;;;;4956987;28;20473;-76
2021/06/19 11:53:17;;;;;;;8.87;4.90;;;;;;;;;;4952399;28;20920;-72
2021/06/19 11:55:43;;;;;;;7.57;5.30;;;;;;;;;;4968017;28;20466;-74
2021/06/19 11:58:09;;;;;;;7.97;6.10;;;;;;;;;;4967693;28;21035;-73
2021/06/19 12:00:51;;;;;;;8.87;6.10;;;;;;;;;;4958581;28;20430;-76
2021/06/19 12:03:22;;;;;;;6.87;5.50;;;;;;;;;;4955978;28;20778;-75
2021/06/19 12:05:48;;;;;;;7.50;5.30;;;;;;;;;;4952731;28;20458;-75
2021/06/19 12:08:14;;;;;;;8.40;5.67;;;;;;;;;;4958864;28;20449;-71
2021/06/19 12:10:40;;;;;;;8.27;5.67;;;;;;;;;;4953739;28;20470;-74
2021/06/19 12:13:07;;;;;;;7.13;5.37;;;;;;;;;;4952944;28;20548;-76
2021/06/19 12:15:34;;;;;;;10.33;5.77;;;;;;;;;;4954926;28;20485;-75
2021/06/19 12:18:01;;;;;;;8.00;5.53;;;;;;;;;;4967986;28;20443;-76
2021/06/19 12:20:27;;;;;;;10.33;5.67;;;;;;;;;;4969562;28;20449;-72
2021/06/19 12:22:53;;;;;;;9.07;5.77;;;;;;;;;;4954277;28;20445;-74
2021/06/19 12:25:29;;;;;;;8.23;6.03;;;;;;;;;;4953992;28;20458;-72
2021/06/19 12:27:55;;;;;;;5.30;4.80;;;;;;;;;;4955183;28;20440;-75
2021/06/19 12:30:21;;;;;;;7.07;4.40;;;;;;;;;;4957169;28;20437;-74
2021/06/19 12:32:49;;;;;;;8.17;5.33;;;;;;;;;;4952454;28;20440;-72
2021/06/19 12:35:17;;;;;;;8.10;6.53;;;;;;;;;;4958028;28;20724;-73
2021/06/19 12:37:49;;;;;;;7.40;4.70;;;;;;;;;;4956067;28;20522;-76
2021/06/19 12:40:15;;;;;;;9.93;5.07;;;;;;;;;;4952174;28;20867;-75
2021/06/19 12:42:54;;;;;;;9.20;5.93;;;;;;;;;;4969457;28;20966;-76
2021/06/19 12:45:23;;;;;;;4.80;3.83;;;;;;;;;;4957686;28;20464;-71
2021/06/19 12:47:50;;;;;;;5.13;4.63;;;;;;;;;;4954098;28;20485;-74
2021/06/19 12:50:21;;;;;;;4.40;3.70;;;;;;;;;;4953031;28;20522;-72
2021/06/19 12:53:14;;;;;;;4.20;3.60;;;;;;;;;;4970794;28;20434;-73
2021/06/19 12:55:44;;;;;;;4.90;4.00;;;;;;;;;;4953604;28;20462;-72
2021/06/19 12:58:12;;;;;;;3.43;2.87;;;;;;;;;;4952321;28;20438;-73
2021/06/19 13:00:49;;;;;;;7.40;3.10;;;;;;;;;;4952820;28;20419;-74
2021/06/19 13:03:18;;;;;;;5.33;4.40;;;;;;;;;;4952457;28;20477;-73
2021/06/19 13:05:48;;;;;;;5.30;4.57;;;;;;;;;;4951387;28;20462;-72
2021/06/19 13:08:15;;;;;;;5.13;4.23;;;;;;;;;;4956435;28;20430;-73
2021/06/19 13:10:42;;;;;;;5.17;4.67;;;;;;;;;;4956926;28;20462;-73
2021/06/19 13:13:08;;;;;;;6.63;4.67;;;;;;;;;;4953278;28;20434;-76
2021/06/19 13:15:35;;;;;;;4.30;3.73;;;;;;;;;;4958283;28;20439;-77
2021/06/19 13:18:01;;;;;;;6.43;4.60;;;;;;;;;;4954185;28;20517;-71
2021/06/19 13:20:27;;;;;;;7.90;6.33;;;;;;;;;;4975173;28;20438;-73
2021/06/19 13:23:19;;;;;;;7.33;4.90;;;;;;;;;;4954519;28;20940;-74
2021/06/19 13:25:54;;;;;;;4.03;3.63;;;;;;;;;;4954296;28;20523;-73
2021/06/19 13:28:32;;;;;;;5.80;4.87;;;;;;;;;;4954681;28;20796;-73
2021/06/19 13:31:17;;;;;;;6.33;4.70;;;;;;;;;;4951465;28;20498;-76
2021/06/19 13:34:12;;;;;;;7.00;5.13;;;;;;;;;;4964157;28;20441;-77
2021/06/19 13:36:41;;;;;;;6.63;5.10;;;;;;;;;;4950532;28;21003;-80
2021/06/19 13:39:20;;;;;;;9.67;5.03;;;;;;;;;;4951783;28;20434;-78
2021/06/19 13:41:48;;;;;;;4.50;4.10;;;;;;;;;;4954668;28;20520;-80
2021/06/19 13:44:14;;;;;;;4.00;3.53;;;;;;;;;;4955889;28;21028;-74
2021/06/19 13:46:41;;;;;;;7.07;4.80;;;;;;;;;;4954941;28;21008;-77
2021/06/19 13:49:08;;;;;;;5.40;4.10;;;;;;;;;;4954925;28;20452;-74
2021/06/19 13:51:34;;;;;;;4.87;4.37;;;;;;;;;;4955494;28;20468;-73
2021/06/19 13:54:00;;;;;;;4.40;4.00;;;;;;;;;;4954967;28;20458;-76
2021/06/19 13:56:27;;;;;;;6.50;5.70;;;;;;;;;;4973542;28;20535;-71
2021/06/19 13:58:53;;;;;;;9.50;4.43;;;;;;;;;;4973076;28;20436;-76
2021/06/19 14:01:19;;;;;;;5.30;4.63;;;;;;;;;;4971079;28;20434;-73
2021/06/19 14:03:46;;;;;;;4.67;4.23;;;;;;;;;;4950314;28;20437;-72
2021/06/19 14:06:13;;;;;;;5.70;5.20;;;;;;;;;;4956496;28;20466;-75
2021/06/19 14:08:43;;;;;;;5.93;5.33;;;;;;;;;;4962063;28;20445;-72
2021/06/19 14:11:09;;;;;;;6.43;5.77;;;;;;;;;;4953298;28;20468;-72
2021/06/19 14:13:35;;;;;;;8.27;6.17;;;;;;;;;;4953303;28;20795;-72
2021/06/19 14:16:02;;;;;;;7.83;4.90;;;;;;;;;;4955820;28;20493;-74
2021/06/19 14:18:28;;;;;;;6.40;4.23;;;;;;;;;;4952783;28;20446;-73
2021/06/19 14:20:55;;;;;;;6.30;5.57;;;;;;;;;;4951938;28;20438;-73
2021/06/19 14:23:21;;;;;;;6.00;5.30;;;;;;;;;;4953946;28;20452;-75
2021/06/19 14:25:47;;;;;;;6.53;5.30;;;;;;;;;;4951403;28;20843;-75
2021/06/19 14:28:13;;;;;;;5.50;4.53;;;;;;;;;;4952588;28;20497;-74
2021/06/19 14:30:39;;;;;;;5.23;4.50;;;;;;;;;;4967787;28;20469;-76
2021/06/19 14:33:05;;;;;;;7.23;6.30;;;;;;;;;;4973717;28;21113;-74
2021/06/19 14:35:31;;;;;;;6.67;4.70;;;;;;;;;;4951134;28;20451;-74
2021/06/19 14:37:57;;;;;;;6.23;5.60;;;;;;;;;;4951849;28;20441;-77
2021/06/19 14:40:23;;;;;;;8.80;6.50;;;;;;;;;;4964687;28;20499;-74
2021/06/19 14:42:49;;;;;;;6.73;5.70;;;;;;;;;;4968471;28;20819;-77
2021/06/19 14:45:15;;;;;;;7.73;5.10;;;;;;;;;;4969893;28;20505;-72